createdAt,value
2023-01-13T00:01:06.751Z,99705.41
2023-01-13T00:04:13.717Z,99700.23
2023-01-13T00:07:20.566Z,99698.95
2023-01-13T00:10:27.667Z,99700.70
2023-01-13T00:13:35.608Z,99698.47
2023-01-13T00:16:42.647Z,99692.67
2023-01-13T00:19:50.136Z,99689.03
2023-01-13T00:22:56.953Z,99683.56
2023-01-13T00:26:05.949Z,99681.90
2023-01-13T00:29:12.786Z,99673.24
2023-01-13T00:32:19.753Z,99670.83
2023-01-13T00:35:26.531Z,99670.99
2023-01-13T00:38:36.076Z,99668.80
2023-01-13T00:41:59.132Z,99665.16
2023-01-13T00:45:08.317Z,99660.30
2023-01-13T00:48:15.139Z,99658.92
2023-01-13T00:51:23.413Z,99650.70
2023-01-13T00:54:30.459Z,99649.20
2023-01-13T00:57:39.656Z,99651.18
2023-01-13T01:00:46.635Z,99648.30
2023-01-13T01:03:54.860Z,99650.06
2023-01-13T01:07:01.831Z,99642.89
2023-01-13T01:10:10.445Z,99640.37
2023-01-13T01:13:17.604Z,99638.75
2023-01-13T01:16:27.100Z,99639.29
2023-01-13T01:19:37.671Z,99639.58
2023-01-13T01:22:44.543Z,99632.70
2023-01-13T01:25:51.690Z,99631.05
2023-01-13T01:28:58.427Z,99628.88
2023-01-13T01:32:05.491Z,99627.88
2023-01-13T01:35:12.639Z,99627.05
2023-01-13T01:38:21.449Z,99626.69
2023-01-13T01:41:30.626Z,99618.48
2023-01-13T01:44:58.193Z,99617.78
2023-01-13T01:48:08.140Z,99619.90
2023-01-13T01:51:15.943Z,99618.83
2023-01-13T01:54:27.578Z,99615.36
2023-01-13T01:57:41.448Z,99613.28
2023-01-13T02:00:48.420Z,99605.69
2023-01-13T02:04:02.327Z,99605.09
2023-01-13T02:07:09.712Z,99602.18
2023-01-13T02:10:19.764Z,99601.19
2023-01-13T02:13:27.001Z,99598.32
2023-01-13T02:16:34.459Z,99593.02
2023-01-13T02:20:09.771Z,99588.09
2023-01-13T02:24:03.127Z,99585.77
2023-01-13T02:27:46.758Z,99583.47
2023-01-13T02:31:17.759Z,99582.80
2023-01-13T02:34:31.691Z,99575.87
2023-01-13T02:37:41.711Z,99578.70
2023-01-13T02:40:58.778Z,99569.23
2023-01-13T02:44:07.891Z,99564.41
2023-01-13T02:47:20.285Z,99568.66
2023-01-13T02:50:33.414Z,99567.05
2023-01-13T02:53:44.414Z,99568.96
2023-01-13T02:56:54.472Z,99571.39
2023-01-13T03:00:02.778Z,99569.05
2023-01-13T03:03:09.627Z,99564.55
2023-01-13T03:06:31.674Z,99564.60
2023-01-13T03:09:45.781Z,99566.39
2023-01-13T03:13:02.373Z,99566.30
2023-01-13T03:16:19.416Z,99563.92
2023-01-13T03:19:37.641Z,99564.17
2023-01-13T03:22:53.383Z,99563.96
2023-01-13T03:26:08.642Z,99560.69
2023-01-13T03:29:20.953Z,99559.23
2023-01-13T03:32:32.027Z,99554.92
2023-01-13T03:35:43.249Z,99556.36
2023-01-13T03:38:55.808Z,99558.56
2023-01-13T03:42:06.800Z,99562.67
2023-01-13T03:45:19.072Z,99562.60
2023-01-13T03:48:27.755Z,99560.96
2023-01-13T03:51:37.576Z,99560.19
2023-01-13T03:54:52.743Z,99559.22
2023-01-13T03:58:06.737Z,99560.30
2023-01-13T04:01:19.834Z,99560.48
2023-01-13T04:04:30.985Z,99556.88
2023-01-13T04:07:47.150Z,99557.73
2023-01-13T04:11:00.229Z,99559.33
2023-01-13T04:14:10.685Z,99559.36
2023-01-13T04:17:18.183Z,99560.63
2023-01-13T04:20:25.147Z,99557.71
2023-01-13T04:23:32.755Z,99559.30
2023-01-13T04:26:39.974Z,99554.23
2023-01-13T04:29:46.626Z,99555.16
2023-01-13T04:32:53.555Z,99547.19
2023-01-13T04:36:00.335Z,99546.98
2023-01-13T04:39:07.653Z,99551.38
2023-01-13T04:42:14.609Z,99548.88
2023-01-13T04:45:21.477Z,99546.27
2023-01-13T04:48:28.576Z,99542.59
2023-01-13T04:51:35.285Z,99540.14
2023-01-13T04:54:42.140Z,99543.06
2023-01-13T04:57:48.965Z,99543.36
2023-01-13T05:00:55.732Z,99547.63
2023-01-13T05:04:02.454Z,99551.58
2023-01-13T05:07:09.371Z,99550.70
2023-01-13T05:10:16.471Z,99552.23
2023-01-13T05:13:41.060Z,99550.92
2023-01-13T05:17:04.370Z,99554.23
2023-01-13T05:20:14.283Z,99551.96
2023-01-13T05:23:38.497Z,99553.02
2023-01-13T05:26:45.318Z,99552.89
2023-01-13T05:29:52.127Z,99551.50
2023-01-13T05:32:59.395Z,99555.21
2023-01-13T05:36:06.729Z,99553.95
2023-01-13T05:39:13.544Z,99555.63
2023-01-13T05:42:38.221Z,99553.54
2023-01-13T05:45:45.403Z,99553.23
2023-01-13T05:48:52.330Z,99551.63
2023-01-13T05:51:59.236Z,99554.44
2023-01-13T05:55:06.697Z,99553.84
2023-01-13T05:58:15.839Z,99553.93
2023-01-13T06:01:22.653Z,99553.63
2023-01-13T06:04:29.542Z,99557.36
2023-01-13T06:07:36.379Z,99564.36
2023-01-13T06:10:43.250Z,99560.27
2023-01-13T06:13:50.120Z,99558.04
2023-01-13T06:16:56.923Z,99558.58
2023-01-13T06:20:03.909Z,99562.35
2023-01-13T06:23:12.876Z,99564.88
2023-01-13T06:26:24.225Z,99565.90
2023-01-13T06:29:31.028Z,99566.61
2023-01-13T06:32:43.383Z,99568.92
2023-01-13T06:35:54.473Z,99564.32
2023-01-13T06:39:03.945Z,99564.75
2023-01-13T06:42:27.439Z,99568.55
2023-01-13T06:45:34.462Z,99570.17
2023-01-13T06:48:41.253Z,99575.55
2023-01-13T06:51:48.225Z,99571.16
2023-01-13T06:54:55.228Z,99575.46
2023-01-13T06:58:02.070Z,99576.12
2023-01-13T07:01:08.990Z,99575.54
2023-01-13T07:04:16.019Z,99572.20
2023-01-13T07:07:22.847Z,99577.54
2023-01-13T07:10:29.784Z,99573.49
2023-01-13T07:14:00.744Z,99577.70
2023-01-13T07:17:07.365Z,99581.49
2023-01-13T07:20:15.347Z,99582.98
2023-01-13T07:23:22.283Z,99584.21
2023-01-13T07:26:29.137Z,99587.55
2023-01-13T07:29:37.265Z,99588.89
2023-01-13T07:32:44.142Z,99588.27
2023-01-13T07:35:57.048Z,99590.10
2023-01-13T07:39:04.119Z,99595.11
2023-01-13T07:42:28.743Z,99601.02
2023-01-13T07:45:35.632Z,99604.80
2023-01-13T07:48:42.550Z,99608.52
2023-01-13T07:51:49.242Z,99611.33
2023-01-13T07:54:56.199Z,99614.67
2023-01-13T07:58:02.974Z,99612.71
2023-01-13T08:01:14.174Z,99613.48
2023-01-13T08:04:21.084Z,99609.39
2023-01-13T08:07:28.088Z,99611.23
2023-01-13T08:10:34.909Z,99613.15
2023-01-13T08:13:41.821Z,99621.17
2023-01-13T08:16:48.715Z,99619.20
2023-01-13T08:19:55.609Z,99617.58
2023-01-13T08:23:03.333Z,99615.70
2023-01-13T08:26:13.362Z,99620.95
2023-01-13T08:29:20.332Z,99624.56
2023-01-13T08:32:27.114Z,99622.16
2023-01-13T08:35:33.936Z,99625.94
2023-01-13T08:38:41.960Z,99622.66
2023-01-13T08:41:58.730Z,99625.80
2023-01-13T08:45:06.692Z,99624.66
2023-01-13T08:48:13.555Z,99629.41
2023-01-13T08:51:20.334Z,99631.38
2023-01-13T08:54:27.000Z,99624.39
2023-01-13T08:57:33.875Z,99628.89
2023-01-13T09:00:40.687Z,99628.46
2023-01-13T09:03:47.458Z,99631.27
2023-01-13T09:06:55.015Z,99632.75
2023-01-13T09:10:02.002Z,99633.95
2023-01-13T09:13:12.853Z,99632.88
2023-01-13T09:16:19.843Z,99628.56
2023-01-13T09:19:27.032Z,99630.08
2023-01-13T09:22:36.582Z,99630.79
2023-01-13T09:25:43.367Z,99628.39
2023-01-13T09:28:50.421Z,99626.64
2023-01-13T09:31:58.304Z,99624.03
2023-01-13T09:35:05.916Z,99623.74
2023-01-13T09:38:12.766Z,99623.80
2023-01-13T09:41:41.284Z,99620.46
2023-01-13T09:44:55.112Z,99618.05
2023-01-13T09:48:07.294Z,99623.55
2023-01-13T09:51:26.067Z,99617.63
2023-01-13T09:54:38.429Z,99617.61
2023-01-13T09:57:45.218Z,99612.71
2023-01-13T10:01:02.423Z,99614.73
2023-01-13T10:04:13.750Z,99609.77
2023-01-13T10:07:21.594Z,99608.42
2023-01-13T10:10:39.623Z,99606.05
2023-01-13T10:13:46.882Z,99607.27
2023-01-13T10:17:13.280Z,99604.84
2023-01-13T10:20:24.808Z,99603.00
2023-01-13T10:23:49.396Z,99606.76
2023-01-13T10:27:04.548Z,99608.73
2023-01-13T10:30:22.494Z,99610.31
2023-01-13T10:33:31.950Z,99610.81
2023-01-13T10:36:38.685Z,99609.85
2023-01-13T10:39:47.808Z,99607.64
2023-01-13T10:43:07.133Z,99609.01
2023-01-13T10:46:16.815Z,99605.88
2023-01-13T10:49:31.128Z,99602.51
2023-01-13T10:52:43.069Z,99598.31
2023-01-13T10:56:02.512Z,99597.77
2023-01-13T10:59:18.855Z,99598.07
2023-01-13T11:02:30.779Z,99597.86
2023-01-13T11:05:37.916Z,99599.98
2023-01-13T11:08:47.123Z,99599.08
2023-01-13T11:11:57.851Z,99599.09
2023-01-13T11:15:10.849Z,99602.14
2023-01-13T11:18:23.362Z,99597.27
2023-01-13T11:21:36.955Z,99593.70
2023-01-13T11:24:50.781Z,99595.73
2023-01-13T11:28:01.811Z,99593.23
2023-01-13T11:31:15.794Z,99589.48
2023-01-13T11:34:31.122Z,99589.64
2023-01-13T11:37:43.347Z,99584.83
2023-01-13T11:40:52.063Z,99587.48
2023-01-13T11:44:07.506Z,99592.63
2023-01-13T11:47:15.574Z,99589.94
2023-01-13T11:50:34.980Z,99593.70
2023-01-13T11:53:52.913Z,99596.13
2023-01-13T11:57:16.253Z,99599.23
2023-01-13T12:00:30.314Z,99602.52
2023-01-13T12:03:41.356Z,99602.02
2023-01-13T12:06:52.872Z,99602.30
2023-01-13T12:10:13.202Z,99609.23
2023-01-13T12:13:30.433Z,99618.08
2023-01-13T12:16:43.411Z,99614.92
2023-01-13T12:19:52.367Z,99613.57
2023-01-13T12:23:04.944Z,99599.39
2023-01-13T12:26:14.129Z,99592.77
2023-01-13T12:29:28.337Z,99593.89
2023-01-13T12:32:39.705Z,99599.73
2023-01-13T12:35:55.266Z,99614.23
2023-01-13T12:39:12.103Z,99612.80
2023-01-13T12:42:43.747Z,99609.54
2023-01-13T12:45:50.670Z,99608.71
2023-01-13T12:49:18.921Z,99596.23
2023-01-13T12:52:26.490Z,99603.23
2023-01-13T12:55:35.291Z,99605.98
2023-01-13T12:58:42.470Z,99594.27
2023-01-13T13:01:50.777Z,99590.98
2023-01-13T13:05:02.355Z,99592.87
2023-01-13T13:08:17.598Z,99585.42
2023-01-13T13:11:54.552Z,99566.82
2023-01-13T13:15:20.165Z,99544.72
2023-01-13T13:18:30.471Z,99543.48
2023-01-13T13:22:18.173Z,99544.06
2023-01-13T13:25:28.876Z,99539.96
2023-01-13T13:28:41.155Z,99536.90
2023-01-13T13:32:13.421Z,99536.49
2023-01-13T13:35:36.768Z,99538.05
2023-01-13T13:39:25.702Z,99544.98
2023-01-13T13:42:59.947Z,99558.15
2023-01-13T13:46:42.870Z,99569.09
2023-01-13T13:49:54.044Z,99575.79
2023-01-13T13:53:05.496Z,99585.58
2023-01-13T13:56:19.473Z,99603.23
2023-01-13T13:59:30.633Z,99618.15
2023-01-13T14:02:39.926Z,99626.85
2023-01-13T14:05:59.628Z,99626.60
2023-01-13T14:09:16.657Z,99636.59
2023-01-13T14:12:25.695Z,99633.70
2023-01-13T14:15:36.233Z,99634.58
2023-01-13T14:18:48.131Z,99632.09
2023-01-13T14:21:56.025Z,99630.70
2023-01-13T14:25:02.980Z,99632.21
2023-01-13T14:28:23.264Z,99636.65
2023-01-13T14:31:31.629Z,99641.16
2023-01-13T14:34:39.716Z,99643.92
2023-01-13T14:37:49.025Z,99642.54
2023-01-13T14:40:56.120Z,99637.66
2023-01-13T14:44:09.497Z,99644.63
2023-01-13T14:47:27.766Z,99656.02
2023-01-13T14:50:35.178Z,99662.70
2023-01-13T14:53:46.395Z,99661.55
2023-01-13T14:57:09.143Z,99669.38
2023-01-13T15:00:26.426Z,99656.92
2023-01-13T15:03:42.834Z,99658.48
2023-01-13T15:06:53.603Z,99672.10
2023-01-13T15:10:02.632Z,99686.34
2023-01-13T15:13:23.798Z,99692.17
2023-01-13T15:16:34.946Z,99690.33
2023-01-13T15:19:42.273Z,99700.88
2023-01-13T15:22:49.976Z,99697.98
2023-01-13T15:25:57.024Z,99697.00
2023-01-13T15:29:05.648Z,99698.92
2023-01-13T15:32:20.796Z,99700.20
2023-01-13T15:35:29.513Z,99698.13
2023-01-13T15:38:36.294Z,99710.27
2023-01-13T15:42:00.944Z,99715.20
2023-01-13T15:45:27.785Z,99724.70
2023-01-13T15:48:35.671Z,99729.85
2023-01-13T15:51:42.617Z,99735.82
2023-01-13T15:54:49.650Z,99735.77
2023-01-13T15:57:56.594Z,99734.21
2023-01-13T16:01:03.456Z,99735.66
2023-01-13T16:04:11.373Z,99730.97
2023-01-13T16:07:19.901Z,99735.88
2023-01-13T16:10:28.822Z,99737.75
2023-01-13T16:13:35.681Z,99735.40
2023-01-13T16:16:42.508Z,99734.42
2023-01-13T16:19:50.273Z,99735.64
2023-01-13T16:22:57.188Z,99745.70
2023-01-13T16:26:05.320Z,99753.52
2023-01-13T16:29:13.130Z,99754.13
2023-01-13T16:32:21.132Z,99756.02
2023-01-13T16:35:28.748Z,99760.25
2023-01-13T16:38:36.904Z,99764.05
2023-01-13T16:41:43.944Z,99772.29
2023-01-13T16:44:53.055Z,99765.83
2023-01-13T16:48:00.231Z,99771.08
2023-01-13T16:51:07.315Z,99779.08
2023-01-13T16:54:14.515Z,99781.58
2023-01-13T16:57:23.796Z,99786.96
2023-01-13T17:00:30.875Z,99789.71
2023-01-13T17:03:38.433Z,99788.76
2023-01-13T17:06:52.185Z,99797.48
2023-01-13T17:09:59.020Z,99797.81
2023-01-13T17:13:15.682Z,99803.86
2023-01-13T17:16:26.241Z,99805.39
2023-01-13T17:19:33.129Z,99801.23
2023-01-13T17:22:39.853Z,99798.14
2023-01-13T17:25:46.661Z,99794.05
2023-01-13T17:28:53.452Z,99795.05
2023-01-13T17:32:01.353Z,99798.45
2023-01-13T17:35:13.598Z,99794.45
2023-01-13T17:38:20.503Z,99793.55
2023-01-13T17:41:28.442Z,99788.85
2023-01-13T17:44:35.353Z,99785.60
2023-01-13T17:47:42.197Z,99781.83
2023-01-13T17:50:52.026Z,99781.36
2023-01-13T17:53:58.804Z,99787.29
2023-01-13T17:57:06.285Z,99781.63
2023-01-13T18:00:16.275Z,99785.71
2023-01-13T18:03:25.112Z,99787.11
2023-01-13T18:06:32.621Z,99786.08
2023-01-13T18:09:41.175Z,99790.65
2023-01-13T18:12:50.564Z,99795.93
2023-01-13T18:16:07.208Z,99802.32
2023-01-13T18:19:31.995Z,99801.21
2023-01-13T18:22:56.461Z,99797.86
2023-01-13T18:26:28.794Z,99797.95
2023-01-13T18:29:35.824Z,99793.33
2023-01-13T18:32:42.959Z,99796.44
2023-01-13T18:35:49.878Z,99801.84
2023-01-13T18:38:58.168Z,99805.36
2023-01-13T18:42:23.368Z,99811.23
2023-01-13T18:45:32.045Z,99814.63
2023-01-13T18:48:38.852Z,99820.64
2023-01-13T18:51:45.649Z,99822.09
2023-01-13T18:54:52.614Z,99828.23
2023-01-13T18:57:59.804Z,99827.38
2023-01-13T19:01:07.049Z,99832.10
2023-01-13T19:04:17.572Z,99830.35
2023-01-13T19:07:28.359Z,99835.77
2023-01-13T19:10:36.389Z,99835.83
2023-01-13T19:13:43.141Z,99835.75
2023-01-13T19:16:49.888Z,99842.65
2023-01-13T19:19:59.215Z,99847.04
2023-01-13T19:23:06.219Z,99852.58
2023-01-13T19:26:14.939Z,99855.48
2023-01-13T19:29:21.777Z,99858.84
2023-01-13T19:32:30.925Z,99860.02
2023-01-13T19:35:39.371Z,99860.09
2023-01-13T19:38:46.043Z,99853.75
2023-01-13T19:42:11.165Z,99858.58
2023-01-13T19:45:28.234Z,99858.06
2023-01-13T19:48:35.053Z,99864.67
2023-01-13T19:51:41.811Z,99870.02
2023-01-13T19:54:48.632Z,99874.04
2023-01-13T19:57:55.484Z,99874.95
2023-01-13T20:01:09.864Z,99885.16
2023-01-13T20:04:19.368Z,99893.84
2023-01-13T20:07:25.146Z,99894.15
2023-01-13T20:10:31.855Z,99900.92
2023-01-13T20:13:38.572Z,99904.21
2023-01-13T20:16:45.401Z,99906.36
2023-01-13T20:19:52.245Z,99906.83
2023-01-13T20:22:59.620Z,99916.08
2023-01-13T20:26:09.587Z,99919.65
2023-01-13T20:29:16.488Z,99919.69
2023-01-13T20:32:23.311Z,99921.64
2023-01-13T20:35:30.028Z,99922.67
2023-01-13T20:38:38.632Z,99927.02
2023-01-13T20:42:03.280Z,99941.11
2023-01-13T20:45:11.958Z,99946.97
2023-01-13T20:48:18.865Z,99940.51
2023-01-13T20:51:25.857Z,99943.40
2023-01-13T20:54:32.597Z,99943.58
2023-01-13T20:57:39.607Z,99940.87
2023-01-13T21:00:46.472Z,99938.70
2023-01-13T21:03:55.824Z,99942.72
2023-01-13T21:07:02.692Z,99940.52
2023-01-13T21:10:11.710Z,99940.59
2023-01-13T21:13:35.785Z,99935.50
2023-01-13T21:16:42.724Z,99937.88
2023-01-13T21:19:49.429Z,99936.32
2023-01-13T21:22:56.138Z,99938.81
2023-01-13T21:26:04.822Z,99938.79
2023-01-13T21:29:11.615Z,99945.63
2023-01-13T21:32:18.394Z,99946.11
2023-01-13T21:35:25.218Z,99949.74
2023-01-13T21:38:31.967Z,99953.84
2023-01-13T21:41:56.591Z,99957.89
2023-01-13T21:45:21.124Z,99960.23
2023-01-13T21:48:28.136Z,99964.27
2023-01-13T21:51:35.760Z,99962.90
2023-01-13T21:54:56.867Z,99964.02
2023-01-13T21:58:11.360Z,99961.54
2023-01-13T22:01:18.807Z,99964.82
2023-01-13T22:04:25.880Z,99958.26
2023-01-13T22:07:34.450Z,99950.15
2023-01-13T22:10:57.432Z,99955.44
2023-01-13T22:14:08.868Z,99954.67
2023-01-13T22:17:20.656Z,99947.83
2023-01-13T22:20:27.332Z,99950.96
2023-01-13T22:23:33.984Z,99959.91
2023-01-13T22:26:40.821Z,99960.02
2023-01-13T22:29:50.614Z,99957.96
2023-01-13T22:32:57.326Z,99963.16
2023-01-13T22:36:04.773Z,99964.42
2023-01-13T22:39:12.394Z,99968.07
2023-01-13T22:42:19.332Z,99970.98
2023-01-13T22:45:26.010Z,99977.06
2023-01-13T22:48:32.894Z,99976.46
2023-01-13T22:51:39.706Z,99983.18
2023-01-13T22:54:46.528Z,99988.04
2023-01-13T22:57:53.375Z,99988.54
2023-01-13T23:01:10.102Z,99993.83
2023-01-13T23:04:17.162Z,99993.65
2023-01-13T23:07:23.996Z,99993.38
2023-01-13T23:10:30.686Z,99997.32
2023-01-13T23:13:39.463Z,99997.89
2023-01-13T23:16:47.062Z,100000.17
2023-01-13T23:19:53.849Z,100002.29
2023-01-13T23:23:00.538Z,99999.66
2023-01-13T23:26:08.789Z,100003.14
2023-01-13T23:29:16.136Z,100005.05
2023-01-13T23:32:23.015Z,100008.80
2023-01-13T23:35:29.986Z,100010.98
2023-01-13T23:38:37.330Z,100014.08
2023-01-13T23:41:44.029Z,100015.18
2023-01-13T23:44:50.815Z,100013.43
2023-01-13T23:47:57.676Z,100017.77
2023-01-13T23:51:06.911Z,100022.92
2023-01-13T23:54:13.702Z,100028.42
2023-01-13T23:57:20.788Z,100029.20
